createdAt,value
2023-03-04T00:00:10.595Z,34.60
2023-03-04T00:02:43.676Z,36.40
2023-03-04T00:05:16.957Z,38.10
2023-03-04T00:07:49.532Z,32.90
2023-03-04T00:10:23.220Z,34.90
2023-03-04T00:12:55.869Z,35.60
2023-03-04T00:15:28.987Z,26.90
2023-03-04T00:18:01.609Z,32.30
2023-03-04T00:20:34.395Z,38.60
2023-03-04T00:23:07.161Z,35.80
2023-03-04T00:25:41.450Z,35.30
2023-03-04T00:28:15.201Z,37.70
2023-03-04T00:30:47.997Z,36.30
2023-03-04T00:33:20.457Z,38.20
2023-03-04T00:35:54.470Z,35.60
2023-03-04T00:38:29.482Z,34.20
2023-03-04T00:41:02.490Z,34.80
2023-03-04T00:43:35.160Z,28.20
2023-03-04T00:46:08.232Z,27.30
2023-03-04T00:48:41.268Z,35.10
2023-03-04T00:51:14.264Z,32.20
2023-03-04T00:53:47.798Z,30.30
2023-03-04T00:56:21.061Z,36.00
2023-03-04T00:58:53.644Z,25.20
2023-03-04T01:01:26.554Z,31.40
2023-03-04T01:03:59.202Z,29.50
2023-03-04T01:06:32.676Z,31.10
2023-03-04T01:09:05.630Z,22.70
2023-03-04T01:11:38.720Z,27.50
2023-03-04T01:14:11.331Z,30.30
2023-03-04T01:16:44.245Z,30.90
2023-03-04T01:19:17.189Z,24.10
2023-03-04T01:21:55.289Z,31.00
2023-03-04T01:24:27.829Z,32.00
2023-03-04T01:27:04.664Z,32.20
2023-03-04T01:29:37.544Z,24.30
2023-03-04T01:32:10.526Z,30.80
2023-03-04T01:34:43.906Z,29.50
2023-03-04T01:37:17.207Z,31.10
2023-03-04T01:39:52.945Z,32.40
2023-03-04T01:42:28.507Z,33.30
2023-03-04T01:45:01.057Z,33.10
2023-03-04T01:47:37.079Z,34.50
2023-03-04T01:50:19.641Z,33.50
2023-03-04T01:52:52.510Z,34.80
2023-03-04T01:55:27.050Z,36.30
2023-03-04T01:58:00.812Z,35.80
2023-03-04T02:00:35.501Z,36.50
2023-03-04T02:03:11.988Z,37.90
2023-03-04T02:05:48.880Z,35.70
2023-03-04T02:08:24.613Z,37.00
2023-03-04T02:10:57.674Z,31.80
2023-03-04T02:13:30.420Z,32.30
2023-03-04T02:16:03.076Z,32.00
2023-03-04T02:18:36.260Z,32.50
2023-03-04T02:21:16.143Z,32.50
2023-03-04T02:23:55.853Z,30.10
2023-03-04T02:26:31.009Z,30.60
2023-03-04T02:29:06.231Z,29.70
2023-03-04T02:31:41.830Z,29.00
2023-03-04T02:34:18.091Z,28.00
2023-03-04T02:36:52.756Z,28.50
2023-03-04T02:39:33.379Z,29.10
2023-03-04T02:42:06.620Z,29.40
2023-03-04T02:44:42.845Z,29.60
2023-03-04T02:47:18.251Z,30.80
2023-03-04T02:49:51.633Z,27.20
2023-03-04T02:52:28.421Z,33.40
2023-03-04T02:55:03.921Z,34.20
2023-03-04T02:57:36.961Z,35.30
2023-03-04T03:00:12.775Z,26.40
2023-03-04T03:02:46.309Z,36.00
2023-03-04T03:05:19.992Z,36.40
2023-03-04T03:10:24.722Z,33.00
2023-03-04T03:12:57.281Z,37.20
2023-03-04T03:15:30.467Z,33.30
2023-03-04T03:18:03.115Z,32.00
2023-03-04T03:20:36.152Z,21.90
2023-03-04T03:23:10.362Z,30.90
2023-03-04T03:25:42.981Z,33.80
2023-03-04T03:28:15.368Z,33.50
2023-03-04T03:30:48.067Z,34.20
2023-03-04T03:33:21.074Z,32.00
2023-03-04T03:35:54.057Z,25.50
2023-03-04T03:38:28.399Z,36.10
2023-03-04T03:41:01.208Z,30.80
2023-03-04T03:43:33.833Z,20.60
2023-03-04T03:46:08.398Z,23.20
2023-03-04T03:48:40.767Z,21.60
2023-03-04T03:51:13.448Z,22.90
2023-03-04T03:53:46.509Z,21.00
2023-03-04T03:56:19.129Z,20.50
2023-03-04T03:58:51.633Z,21.40
2023-03-04T04:01:24.892Z,21.10
2023-03-04T04:03:58.377Z,18.10
2023-03-04T04:06:31.370Z,20.70
2023-03-04T04:09:03.903Z,19.90
2023-03-04T04:11:36.551Z,19.80
2023-03-04T04:14:09.060Z,22.30
2023-03-04T04:16:41.916Z,22.20
2023-03-04T04:19:19.994Z,19.70
2023-03-04T04:21:52.971Z,23.10
2023-03-04T04:24:25.561Z,21.60
2023-03-04T04:26:59.570Z,16.10
2023-03-04T04:29:32.102Z,20.20
2023-03-04T04:32:05.267Z,21.00
2023-03-04T04:34:38.367Z,16.30
2023-03-04T04:37:11.207Z,20.70
2023-03-04T04:39:43.962Z,20.80
2023-03-04T04:42:16.615Z,18.60
2023-03-04T04:44:49.168Z,20.70
2023-03-04T04:47:21.836Z,20.60
2023-03-04T04:49:54.545Z,21.30
2023-03-04T04:52:27.574Z,20.50
2023-03-04T04:55:00.098Z,19.90
2023-03-04T04:57:32.853Z,20.50
2023-03-04T05:00:06.222Z,21.70
2023-03-04T05:02:38.903Z,19.00
2023-03-04T05:05:12.607Z,18.10
2023-03-04T05:10:16.545Z,19.00
2023-03-04T05:12:50.318Z,19.30
2023-03-04T05:17:55.212Z,19.50
2023-03-04T05:20:28.931Z,19.60
2023-03-04T05:25:32.551Z,18.60
2023-03-04T05:28:06.452Z,21.80
2023-03-04T05:30:39.635Z,19.30
2023-03-04T05:33:14.820Z,17.70
2023-03-04T05:35:49.020Z,19.30
2023-03-04T05:38:23.175Z,18.80
2023-03-04T05:41:00.689Z,18.90
2023-03-04T05:43:36.088Z,19.60
2023-03-04T05:46:09.066Z,19.30
2023-03-04T05:48:41.809Z,21.60
2023-03-04T05:51:17.190Z,22.40
2023-03-04T05:53:50.296Z,19.30
2023-03-04T05:56:23.612Z,20.40
2023-03-04T05:58:58.511Z,21.40
2023-03-04T06:01:31.683Z,20.10
2023-03-04T06:04:04.718Z,21.30
2023-03-04T06:06:37.572Z,19.10
2023-03-04T06:09:10.271Z,19.40
2023-03-04T06:11:43.012Z,18.80
2023-03-04T06:14:15.817Z,17.60
2023-03-04T06:16:48.521Z,18.70
2023-03-04T06:19:21.301Z,18.40
2023-03-04T06:21:54.257Z,19.70
2023-03-04T06:24:28.798Z,20.60
2023-03-04T06:27:02.025Z,18.20
2023-03-04T06:29:34.937Z,19.60
2023-03-04T06:32:08.900Z,13.50
2023-03-04T06:34:41.725Z,19.10
2023-03-04T06:37:15.018Z,15.00
2023-03-04T06:39:48.488Z,15.10
2023-03-04T06:42:21.068Z,18.90
2023-03-04T06:44:53.847Z,20.90
2023-03-04T06:47:27.178Z,20.30
2023-03-04T06:50:00.297Z,19.90
2023-03-04T06:52:32.789Z,21.70
2023-03-04T06:55:10.732Z,20.60
2023-03-04T06:57:43.913Z,18.90
2023-03-04T07:00:19.987Z,21.50
2023-03-04T07:02:54.991Z,19.10
2023-03-04T07:05:28.487Z,20.30
2023-03-04T07:08:01.146Z,23.00
2023-03-04T07:10:34.141Z,21.20
2023-03-04T07:13:06.673Z,21.00
2023-03-04T07:15:39.392Z,24.00
2023-03-04T07:18:12.047Z,17.30
2023-03-04T07:20:44.887Z,20.60
2023-03-04T07:23:17.696Z,22.30
2023-03-04T07:25:50.980Z,21.00
2023-03-04T07:28:23.628Z,20.90
2023-03-04T07:30:56.513Z,18.80
2023-03-04T07:33:30.647Z,21.60
2023-03-04T07:36:06.721Z,19.60
2023-03-04T07:38:39.580Z,20.10
2023-03-04T07:41:12.577Z,21.50
2023-03-04T07:43:45.623Z,19.20
2023-03-04T07:46:19.381Z,20.10
2023-03-04T07:51:26.666Z,20.70
2023-03-04T07:54:02.259Z,34.10
2023-03-04T07:56:36.434Z,24.90
2023-03-04T08:01:41.402Z,21.10
2023-03-04T08:04:14.136Z,23.80
2023-03-04T08:06:49.068Z,22.60
2023-03-04T08:09:21.540Z,24.50
2023-03-04T08:11:54.432Z,24.80
2023-03-04T08:14:27.096Z,25.70
2023-03-04T08:16:59.860Z,23.40
2023-03-04T08:19:33.947Z,25.70
2023-03-04T08:22:12.330Z,25.10
2023-03-04T08:24:46.908Z,24.00
2023-03-04T08:27:20.062Z,24.70
2023-03-04T08:29:52.596Z,24.00
2023-03-04T08:32:25.537Z,26.00
2023-03-04T08:34:58.945Z,26.80
2023-03-04T08:37:31.804Z,28.50
2023-03-04T08:40:04.616Z,21.80
2023-03-04T08:42:37.480Z,27.20
2023-03-04T08:45:11.815Z,21.20
2023-03-04T08:47:44.612Z,23.40
2023-03-04T08:50:21.371Z,25.50
2023-03-04T08:52:55.472Z,25.80
2023-03-04T08:58:01.295Z,22.40
2023-03-04T09:00:34.058Z,22.90
2023-03-04T09:03:08.398Z,22.70
2023-03-04T09:05:40.993Z,20.20
2023-03-04T09:08:13.921Z,16.80
2023-03-04T09:10:47.105Z,21.90
2023-03-04T09:13:25.147Z,20.60
2023-03-04T09:15:59.045Z,22.70
2023-03-04T09:18:32.967Z,22.20
2023-03-04T09:23:37.827Z,20.70
2023-03-04T09:26:24.467Z,23.10
2023-03-04T09:28:59.565Z,23.30
2023-03-04T09:31:35.137Z,22.60
2023-03-04T09:34:08.250Z,22.30
2023-03-04T09:36:40.953Z,23.20
2023-03-04T09:39:14.443Z,16.70
2023-03-04T09:41:48.930Z,22.20
2023-03-04T09:44:27.871Z,21.10
2023-03-04T09:47:04.917Z,26.40
2023-03-04T09:49:40.471Z,26.90
2023-03-04T09:52:25.934Z,29.20
2023-03-04T09:55:15.267Z,26.10
2023-03-04T09:57:58.485Z,24.10
2023-03-04T10:00:40.946Z,25.30
2023-03-04T10:03:23.263Z,22.50
2023-03-04T10:06:00.776Z,24.70
2023-03-04T10:08:47.223Z,27.80
2023-03-04T10:11:24.270Z,24.00
2023-03-04T10:14:06.634Z,24.90
2023-03-04T10:16:46.108Z,25.10
2023-03-04T10:19:31.467Z,22.90
2023-03-04T10:22:15.047Z,21.20
2023-03-04T10:24:48.805Z,23.40
2023-03-04T10:27:24.148Z,24.70
2023-03-04T10:29:56.721Z,19.10
2023-03-04T10:32:30.024Z,22.70
2023-03-04T10:35:02.630Z,24.60
2023-03-04T10:37:51.143Z,21.70
2023-03-04T10:40:26.761Z,23.40
2023-03-04T10:43:01.597Z,25.70
2023-03-04T10:45:37.002Z,24.10
2023-03-04T10:48:19.558Z,23.80
2023-03-04T10:50:52.130Z,23.80
2023-03-04T10:53:35.288Z,25.60
2023-03-04T10:56:30.226Z,24.80
2023-03-04T10:59:42.935Z,25.80
2023-03-04T11:02:25.207Z,25.40
2023-03-04T11:05:06.797Z,23.80
2023-03-04T11:07:55.001Z,24.10
2023-03-04T11:10:31.891Z,25.60
2023-03-04T11:13:14.508Z,25.40
2023-03-04T11:15:58.433Z,24.10
2023-03-04T11:21:07.713Z,19.80
2023-03-04T11:23:48.911Z,27.70
2023-03-04T11:26:25.614Z,22.80
2023-03-04T11:29:07.503Z,28.20
2023-03-04T11:31:45.639Z,24.40
2023-03-04T11:34:29.594Z,22.80
2023-03-04T11:37:08.567Z,22.20
2023-03-04T11:39:43.195Z,21.20
2023-03-04T11:42:25.533Z,22.10
2023-03-04T11:44:59.451Z,24.70
2023-03-04T11:47:47.920Z,25.10
2023-03-04T11:50:31.148Z,23.10
2023-03-04T11:53:35.493Z,27.00
2023-03-04T11:56:26.794Z,26.40
2023-03-04T11:59:28.958Z,24.30
2023-03-04T12:02:17.546Z,27.90
2023-03-04T12:05:18.430Z,27.50
2023-03-04T12:08:10.463Z,31.60
2023-03-04T12:10:50.978Z,30.80
2023-03-04T12:13:43.322Z,28.50
2023-03-04T12:16:31.707Z,31.50
2023-03-04T12:19:24.797Z,29.20
2023-03-04T12:22:14.251Z,28.00
2023-03-04T12:25:32.441Z,30.60
2023-03-04T12:28:19.291Z,30.70
2023-03-04T12:31:04.259Z,31.70
2023-03-04T12:33:46.280Z,36.30
2023-03-04T12:36:29.687Z,35.10
2023-03-04T12:39:22.458Z,36.90
2023-03-04T12:42:07.940Z,35.10
2023-03-04T12:44:46.200Z,34.20
2023-03-04T12:47:33.348Z,35.30
2023-03-04T12:50:33.701Z,34.60
2023-03-04T12:53:19.246Z,33.30
2023-03-04T12:55:56.974Z,34.20
2023-03-04T12:58:31.400Z,34.40
2023-03-04T13:01:13.146Z,35.40
2023-03-04T13:03:55.454Z,33.00
2023-03-04T13:06:38.004Z,33.30
2023-03-04T13:09:16.669Z,37.10
2023-03-04T13:12:07.118Z,36.60
2023-03-04T13:14:39.688Z,34.60
2023-03-04T13:17:43.740Z,34.20
2023-03-04T13:20:25.205Z,33.50
2023-03-04T13:23:02.072Z,33.30
2023-03-04T13:25:44.485Z,35.20
2023-03-04T13:28:33.117Z,32.50
2023-03-04T13:31:24.605Z,31.90
2023-03-04T13:34:29.461Z,35.40
2023-03-04T13:37:03.525Z,32.20
2023-03-04T13:39:37.807Z,35.70
2023-03-04T13:42:36.827Z,36.10
2023-03-04T13:45:37.181Z,37.30
2023-03-04T13:48:25.504Z,38.00
2023-03-04T13:50:58.478Z,36.40
2023-03-04T13:53:50.283Z,35.80
2023-03-04T13:56:37.265Z,39.20
2023-03-04T13:59:28.860Z,36.30
2023-03-04T14:02:17.414Z,37.60
2023-03-04T14:04:58.565Z,39.00
2023-03-04T14:07:33.990Z,38.10
2023-03-04T14:10:10.301Z,38.00
2023-03-04T14:12:48.293Z,32.60
2023-03-04T14:15:26.474Z,19.80
2023-03-04T14:18:00.675Z,36.80
2023-03-04T14:20:35.255Z,42.50
2023-03-04T14:23:25.027Z,40.50
2023-03-04T14:26:07.752Z,38.10
2023-03-04T14:28:49.534Z,35.30
2023-03-04T14:31:27.932Z,35.40
2023-03-04T14:34:04.696Z,34.70
2023-03-04T14:36:57.446Z,29.50
2023-03-04T14:39:33.385Z,33.40
2023-03-04T14:42:11.583Z,34.80
2023-03-04T14:44:49.179Z,33.70
2023-03-04T14:47:26.781Z,34.00
2023-03-04T14:49:59.554Z,33.60
2023-03-04T14:52:39.046Z,33.80
2023-03-04T14:55:24.419Z,37.90
2023-03-04T14:58:08.462Z,34.20
2023-03-04T15:00:43.800Z,37.90
2023-03-04T15:03:25.089Z,35.00
2023-03-04T15:05:58.860Z,31.10
2023-03-04T15:08:36.001Z,32.80
2023-03-04T15:11:15.827Z,35.20
2023-03-04T15:13:51.249Z,34.20
2023-03-04T15:16:26.156Z,38.30
2023-03-04T15:19:01.360Z,35.40
2023-03-04T15:21:37.570Z,40.20
2023-03-04T15:24:13.896Z,38.30
2023-03-04T15:26:50.621Z,37.10
2023-03-04T15:29:24.240Z,35.00
2023-03-04T15:31:59.202Z,33.90
2023-03-04T15:34:32.466Z,30.90
2023-03-04T15:37:07.885Z,33.60
2023-03-04T15:39:41.148Z,35.70
2023-03-04T15:42:16.397Z,26.70
2023-03-04T15:44:49.736Z,31.10
2023-03-04T15:49:56.365Z,31.70
2023-03-04T15:52:29.136Z,31.10
2023-03-04T15:55:02.564Z,23.00
2023-03-04T15:57:37.505Z,31.70
2023-03-04T16:00:13.495Z,30.80
2023-03-04T16:02:47.039Z,29.30
2023-03-04T16:05:24.973Z,30.40
2023-03-04T16:07:59.185Z,28.30
2023-03-04T16:10:32.434Z,29.60
2023-03-04T16:13:05.701Z,26.80
2023-03-04T16:15:38.707Z,24.80
2023-03-04T16:18:12.046Z,26.10
2023-03-04T16:20:50.296Z,26.60
2023-03-04T16:23:26.009Z,26.10
2023-03-04T16:26:00.084Z,26.30
2023-03-04T16:28:33.224Z,32.60
2023-03-04T16:31:06.235Z,36.80
2023-03-04T16:33:40.457Z,36.00
2023-03-04T16:36:21.642Z,36.60
2023-03-04T16:38:59.644Z,36.20
2023-03-04T16:41:39.657Z,34.80
2023-03-04T16:44:20.528Z,36.90
2023-03-04T16:46:57.497Z,37.90
2023-03-04T16:49:35.737Z,34.30
2023-03-04T16:52:25.636Z,37.90
2023-03-04T16:55:01.165Z,40.00
2023-03-04T16:57:34.001Z,82.50
2023-03-04T17:00:09.276Z,44.60
2023-03-04T17:02:42.144Z,39.60
2023-03-04T17:05:20.234Z,41.30
2023-03-04T17:07:55.697Z,16.20
2023-03-04T17:10:28.683Z,35.50
2023-03-04T17:13:01.233Z,35.70
2023-03-04T17:15:34.283Z,36.30
2023-03-04T17:18:12.452Z,37.20
2023-03-04T17:20:46.183Z,32.40
2023-03-04T17:23:22.043Z,35.40
2023-03-04T17:26:03.046Z,33.00
2023-03-04T17:28:36.173Z,33.40
2023-03-04T17:31:14.570Z,37.40
2023-03-04T17:33:47.803Z,41.30
2023-03-04T17:36:22.218Z,37.00
2023-03-04T17:38:55.156Z,34.20
2023-03-04T17:41:27.857Z,30.50
2023-03-04T17:44:02.007Z,30.20
2023-03-04T17:46:36.213Z,29.00
2023-03-04T17:49:09.312Z,28.40
2023-03-04T17:51:56.403Z,26.00
2023-03-04T17:54:33.760Z,28.50
2023-03-04T17:57:12.674Z,28.10
2023-03-04T17:59:49.577Z,31.10
2023-03-04T18:02:26.878Z,30.30
2023-03-04T18:05:06.262Z,27.40
2023-03-04T18:07:39.688Z,28.10
2023-03-04T18:10:20.564Z,27.10
2023-03-04T18:13:02.302Z,31.40
2023-03-04T18:15:38.062Z,27.90
2023-03-04T18:18:11.437Z,29.10
2023-03-04T18:20:44.440Z,34.40
2023-03-04T18:23:20.325Z,28.10
2023-03-04T18:25:52.904Z,27.10
2023-03-04T18:28:26.337Z,27.20
2023-03-04T18:30:59.773Z,29.80
2023-03-04T18:33:34.291Z,29.20
2023-03-04T18:36:12.771Z,25.40
2023-03-04T18:38:46.129Z,29.20
2023-03-04T18:41:20.503Z,30.20
2023-03-04T18:43:54.381Z,24.80
2023-03-04T18:46:36.666Z,29.90
2023-03-04T18:49:12.480Z,29.60
2023-03-04T18:51:45.152Z,27.70
2023-03-04T18:54:23.870Z,29.50
2023-03-04T18:57:00.637Z,31.60
2023-03-04T18:59:37.579Z,30.80
2023-03-04T19:02:17.602Z,32.50
2023-03-04T19:04:51.216Z,34.20
2023-03-04T19:10:05.528Z,31.00
2023-03-04T19:12:50.152Z,29.90
2023-03-04T19:15:31.818Z,28.50
2023-03-04T19:18:14.466Z,27.10
2023-03-04T19:20:52.308Z,26.70
2023-03-04T19:23:31.918Z,23.20
2023-03-04T19:26:09.055Z,16.40
2023-03-04T19:28:46.657Z,11.80
2023-03-04T19:31:25.971Z,10.20
2023-03-04T19:34:04.614Z,10.00
2023-03-04T19:36:44.460Z,8.60
2023-03-04T19:39:23.144Z,5.90
2023-03-04T19:42:00.350Z,4.90
2023-03-04T19:44:37.974Z,4.60
2023-03-04T19:47:12.336Z,4.30
2023-03-04T19:49:50.281Z,4.50
2023-03-04T19:52:24.143Z,4.80
2023-03-04T19:54:57.232Z,6.40
2023-03-04T19:57:29.959Z,4.50
2023-03-04T20:00:05.272Z,4.50
2023-03-04T20:02:38.317Z,4.20
2023-03-04T20:05:12.851Z,4.30
2023-03-04T20:07:45.973Z,5.00
2023-03-04T20:12:54.140Z,13.00
2023-03-04T20:15:26.837Z,8.40
2023-03-04T20:17:59.709Z,18.10
2023-03-04T20:20:32.734Z,11.10
2023-03-04T20:23:06.076Z,8.60
2023-03-04T20:25:40.013Z,8.40
2023-03-04T20:28:13.175Z,6.80
2023-03-04T20:30:46.012Z,8.90
2023-03-04T20:33:19.403Z,10.20
2023-03-04T20:35:52.360Z,7.00
2023-03-04T20:38:25.362Z,13.70
2023-03-04T20:40:58.495Z,8.40
2023-03-04T20:43:31.918Z,8.20
2023-03-04T20:46:34.954Z,7.10
2023-03-04T20:49:09.892Z,6.50
2023-03-04T20:51:42.642Z,8.40
2023-03-04T20:54:16.232Z,6.10
2023-03-04T20:56:51.112Z,8.40
2023-03-04T20:59:24.085Z,6.70
2023-03-04T21:01:57.349Z,6.20
2023-03-04T21:04:32.514Z,6.20
2023-03-04T21:07:06.304Z,5.40
2023-03-04T21:09:39.193Z,4.30
2023-03-04T21:12:12.570Z,4.90
2023-03-04T21:14:46.069Z,7.50
2023-03-04T21:17:19.079Z,5.30
2023-03-04T21:19:51.797Z,6.70
2023-03-04T21:22:24.894Z,6.60
2023-03-04T21:24:57.736Z,6.80
2023-03-04T21:27:30.527Z,4.40
2023-03-04T21:30:04.209Z,5.90
2023-03-04T21:32:37.489Z,6.60
2023-03-04T21:35:14.890Z,6.90
2023-03-04T21:37:47.778Z,5.70
2023-03-04T21:40:21.172Z,6.40
2023-03-04T21:42:54.000Z,7.10
2023-03-04T21:45:26.793Z,6.90
2023-03-04T21:47:59.344Z,6.40
2023-03-04T21:50:32.279Z,6.80
2023-03-04T21:53:05.850Z,6.00
2023-03-04T21:55:42.652Z,7.20
2023-03-04T21:58:15.384Z,7.40
2023-03-04T22:00:50.141Z,7.40
2023-03-04T22:03:23.126Z,9.20
2023-03-04T22:05:59.807Z,8.70
2023-03-04T22:08:32.526Z,7.60
2023-03-04T22:11:09.988Z,5.70
2023-03-04T22:13:42.662Z,6.80
2023-03-04T22:16:15.735Z,7.20
2023-03-04T22:18:48.797Z,6.90
2023-03-04T22:21:23.587Z,7.50
2023-03-04T22:23:56.543Z,6.40
2023-03-04T22:26:32.970Z,7.10
2023-03-04T22:29:06.595Z,7.60
2023-03-04T22:31:40.063Z,8.00
2023-03-04T22:34:14.676Z,7.30
2023-03-04T22:36:49.659Z,7.30
2023-03-04T22:39:23.480Z,6.80
2023-03-04T22:41:56.088Z,6.20
2023-03-04T22:44:30.083Z,6.70
2023-03-04T22:47:02.747Z,6.80
2023-03-04T22:49:35.250Z,6.10
2023-03-04T22:52:08.119Z,6.00
2023-03-04T22:54:40.593Z,6.30
2023-03-04T22:57:13.424Z,6.80
2023-03-04T22:59:45.983Z,6.20
2023-03-04T23:02:18.771Z,5.50
2023-03-04T23:04:51.321Z,5.40
2023-03-04T23:07:24.215Z,6.20
2023-03-04T23:09:56.664Z,5.80
2023-03-04T23:12:29.530Z,5.60
2023-03-04T23:15:02.362Z,5.20
2023-03-04T23:17:35.707Z,6.40
2023-03-04T23:20:10.511Z,6.00
2023-03-04T23:22:44.523Z,5.20
2023-03-04T23:25:19.039Z,4.00
2023-03-04T23:27:53.277Z,4.80
2023-03-04T23:30:25.882Z,5.10
2023-03-04T23:32:58.719Z,4.80
2023-03-04T23:35:31.430Z,4.60
2023-03-04T23:38:04.422Z,4.50
2023-03-04T23:40:37.128Z,4.20
2023-03-04T23:43:09.928Z,4.90
2023-03-04T23:45:42.588Z,4.40
2023-03-04T23:48:15.334Z,4.90
2023-03-04T23:50:54.519Z,4.80
2023-03-04T23:53:27.685Z,6.20
2023-03-04T23:56:00.217Z,5.30
2023-03-04T23:58:33.224Z,6.00
